sensor_id;sensor_type;location;lat;lon;timestamp;pressure;altitude;pressure_sealevel;temperature
27815;BMP280;15190;52.122;9.956;2023-03-21T00:00:47;100566.22;;;10.53
27815;BMP280;15190;52.122;9.956;2023-03-21T00:03:14;100554.44;;;10.53
27815;BMP280;15190;52.122;9.956;2023-03-21T00:05:41;100555.72;;;10.46
27815;BMP280;15190;52.122;9.956;2023-03-21T00:08:07;100561.84;;;10.51
27815;BMP280;15190;52.122;9.956;2023-03-21T00:10:33;100554.28;;;10.51
27815;BMP280;15190;52.122;9.956;2023-03-21T00:12:59;100556.31;;;10.57
27815;BMP280;15190;52.122;9.956;2023-03-21T00:15:25;100553.00;;;10.58
27815;BMP280;15190;52.122;9.956;2023-03-21T00:17:55;100551.97;;;10.55
27815;BMP280;15190;52.122;9.956;2023-03-21T00:20:32;100547.09;;;10.58
27815;BMP280;15190;52.122;9.956;2023-03-21T00:23:03;100552.16;;;10.58
27815;BMP280;15190;52.122;9.956;2023-03-21T00:25:30;100553.13;;;10.61
27815;BMP280;15190;52.122;9.956;2023-03-21T00:27:57;100551.78;;;10.68
27815;BMP280;15190;52.122;9.956;2023-03-21T00:30:23;100551.78;;;10.68
27815;BMP280;15190;52.122;9.956;2023-03-21T00:32:49;100549.41;;;10.71
27815;BMP280;15190;52.122;9.956;2023-03-21T00:35:15;100541.81;;;10.71
27815;BMP280;15190;52.122;9.956;2023-03-21T00:37:41;100547.16;;;10.77
27815;BMP280;15190;52.122;9.956;2023-03-21T00:40:08;100532.00;;;10.77
27815;BMP280;15190;52.122;9.956;2023-03-21T00:42:35;100543.91;;;10.79
27815;BMP280;15190;52.122;9.956;2023-03-21T00:45:02;100537.13;;;10.78
27815;BMP280;15190;52.122;9.956;2023-03-21T00:47:28;100537.34;;;10.83
27815;BMP280;15190;52.122;9.956;2023-03-21T00:49:54;100537.25;;;10.81
27815;BMP280;15190;52.122;9.956;2023-03-21T00:52:20;100533.88;;;10.81
27815;BMP280;15190;52.122;9.956;2023-03-21T00:54:47;100527.00;;;10.78
27815;BMP280;15190;52.122;9.956;2023-03-21T00:57:13;100527.78;;;10.77
27815;BMP280;15190;52.122;9.956;2023-03-21T00:59:38;100527.09;;;10.80
27815;BMP280;15190;52.122;9.956;2023-03-21T01:02:04;100525.13;;;10.74
27815;BMP280;15190;52.122;9.956;2023-03-21T01:04:32;100526.19;;;10.79
27815;BMP280;15190;52.122;9.956;2023-03-21T01:07:01;100516.81;;;10.77
27815;BMP280;15190;52.122;9.956;2023-03-21T01:09:27;100516.03;;;10.78
27815;BMP280;15190;52.122;9.956;2023-03-21T01:11:53;100515.22;;;10.79
27815;BMP280;15190;52.122;9.956;2023-03-21T01:14:21;100514.94;;;10.73
27815;BMP280;15190;52.122;9.956;2023-03-21T01:16:48;100509.16;;;10.75
27815;BMP280;15190;52.122;9.956;2023-03-21T01:19:17;100509.16;;;10.75
27815;BMP280;15190;52.122;9.956;2023-03-21T01:21:43;100506.69;;;10.77
27815;BMP280;15190;52.122;9.956;2023-03-21T01:24:09;100509.16;;;10.75
27815;BMP280;15190;52.122;9.956;2023-03-21T01:26:36;100498.84;;;10.71
27815;BMP280;15190;52.122;9.956;2023-03-21T01:29:03;100503.06;;;10.72
27815;BMP280;15190;52.122;9.956;2023-03-21T01:31:29;100503.06;;;10.72
27815;BMP280;15190;52.122;9.956;2023-03-21T01:33:55;100503.31;;;10.76
27815;BMP280;15190;52.122;9.956;2023-03-21T01:36:24;100492.31;;;10.76
27815;BMP280;15190;52.122;9.956;2023-03-21T01:38:51;100495.72;;;10.76
27815;BMP280;15190;52.122;9.956;2023-03-21T01:41:23;100500.69;;;10.75
27815;BMP280;15190;52.122;9.956;2023-03-21T01:43:49;100504.75;;;10.71
27815;BMP280;15190;52.122;9.956;2023-03-21T01:49:31;100494.34;;;10.65
27815;BMP280;15190;52.122;9.956;2023-03-21T01:52:03;100493.69;;;10.69
27815;BMP280;15190;52.122;9.956;2023-03-21T01:54:33;100489.78;;;10.76
27815;BMP280;15190;52.122;9.956;2023-03-21T01:57:03;100498.19;;;10.75
27815;BMP280;15190;52.122;9.956;2023-03-21T02:02:08;100489.00;;;10.77
27815;BMP280;15190;52.122;9.956;2023-03-21T02:04:37;100484.88;;;10.79
27815;BMP280;15190;52.122;9.956;2023-03-21T02:07:11;100491.44;;;10.75
27815;BMP280;15190;52.122;9.956;2023-03-21T02:09:40;100486.47;;;10.77
27815;BMP280;15190;52.122;9.956;2023-03-21T02:12:07;100478.88;;;10.77
27815;BMP280;15190;52.122;9.956;2023-03-21T02:14:35;100478.94;;;10.78
27815;BMP280;15190;52.122;9.956;2023-03-21T02:28:40;100468.59;;;10.74
27815;BMP280;15190;52.122;9.956;2023-03-21T02:31:24;100464.34;;;10.73
27815;BMP280;15190;52.122;9.956;2023-03-21T02:34:01;100465.28;;;10.75
27815;BMP280;15190;52.122;9.956;2023-03-21T02:37:01;100463.44;;;10.71
27815;BMP280;15190;52.122;9.956;2023-03-21T02:42:08;100454.91;;;10.69
27815;BMP280;15190;52.122;9.956;2023-03-21T02:44:48;100458.13;;;10.66
27815;BMP280;15190;52.122;9.956;2023-03-21T02:47:25;100465.72;;;10.66
27815;BMP280;15190;52.122;9.956;2023-03-21T02:49:57;100460.81;;;10.69
27815;BMP280;15190;52.122;9.956;2023-03-21T02:52:30;100450.63;;;10.68
27815;BMP280;15190;52.122;9.956;2023-03-21T02:54:57;100449.09;;;10.71
27815;BMP280;15190;52.122;9.956;2023-03-21T02:57:24;100453.38;;;10.72
27815;BMP280;15190;52.122;9.956;2023-03-21T02:59:50;100447.66;;;10.76
27815;BMP280;15190;52.122;9.956;2023-03-21T03:02:20;100445.84;;;10.74
27815;BMP280;15190;52.122;9.956;2023-03-21T03:04:47;100453.50;;;10.75
27815;BMP280;15190;52.122;9.956;2023-03-21T03:07:39;100453.22;;;10.69
27815;BMP280;15190;52.122;9.956;2023-03-21T03:12:59;100443.97;;;10.70
27815;BMP280;15190;52.122;9.956;2023-03-21T03:15:46;100444.25;;;10.76
27815;BMP280;15190;52.122;9.956;2023-03-21T03:18:46;100442.25;;;10.69
27815;BMP280;15190;52.122;9.956;2023-03-21T03:23:49;100440.94;;;10.77
27815;BMP280;15190;52.122;9.956;2023-03-21T03:26:29;100435.88;;;10.77
27815;BMP280;15190;52.122;9.956;2023-03-21T03:29:00;100447.88;;;10.81
27815;BMP280;15190;52.122;9.956;2023-03-21T03:31:33;100441.88;;;10.79
27815;BMP280;15190;52.122;9.956;2023-03-21T03:34:12;100441.78;;;10.77
27815;BMP280;15190;52.122;9.956;2023-03-21T03:36:43;100435.03;;;10.76
27815;BMP280;15190;52.122;9.956;2023-03-21T03:39:10;100442.53;;;10.75
27815;BMP280;15190;52.122;9.956;2023-03-21T03:41:44;100437.41;;;10.73
27815;BMP280;15190;52.122;9.956;2023-03-21T03:44:11;100435.09;;;10.78
27815;BMP280;15190;52.122;9.956;2023-03-21T03:46:51;100442.53;;;10.75
27815;BMP280;15190;52.122;9.956;2023-03-21T03:49:23;100430.66;;;10.74
27815;BMP280;15190;52.122;9.956;2023-03-21T03:52:00;100437.47;;;10.75
27815;BMP280;15190;52.122;9.956;2023-03-21T03:54:32;100425.59;;;10.74
27815;BMP280;15190;52.122;9.956;2023-03-21T03:57:00;100429.06;;;10.76
27815;BMP280;15190;52.122;9.956;2023-03-21T03:59:26;100432.50;;;10.76
27815;BMP280;15190;52.122;9.956;2023-03-21T04:01:52;100429.97;;;10.76
27815;BMP280;15190;52.122;9.956;2023-03-21T04:04:18;100417.31;;;10.76
27815;BMP280;15190;52.122;9.956;2023-03-21T04:06:47;100428.94;;;10.73
27815;BMP280;15190;52.122;9.956;2023-03-21T04:09:17;100431.56;;;10.74
27815;BMP280;15190;52.122;9.956;2023-03-21T04:11:43;100433.28;;;10.75
27815;BMP280;15190;52.122;9.956;2023-03-21T04:14:10;100432.19;;;10.70
27815;BMP280;15190;52.122;9.956;2023-03-21T04:16:35;100427.19;;;10.72
27815;BMP280;15190;52.122;9.956;2023-03-21T04:19:01;100430.66;;;10.74
27815;BMP280;15190;52.122;9.956;2023-03-21T04:21:27;100416.44;;;10.76
27815;BMP280;15190;52.122;9.956;2023-03-21T04:23:53;100428.13;;;10.74
27815;BMP280;15190;52.122;9.956;2023-03-21T04:26:20;100417.41;;;10.78
27815;BMP280;15190;52.122;9.956;2023-03-21T04:28:48;100419.84;;;10.76
27815;BMP280;15190;52.122;9.956;2023-03-21T04:31:14;100423.97;;;10.74
27815;BMP280;15190;52.122;9.956;2023-03-21T04:33:43;100428.00;;;10.71
27815;BMP280;15190;52.122;9.956;2023-03-21T04:36:09;100416.81;;;10.66
27815;BMP280;15190;52.122;9.956;2023-03-21T04:38:53;100413.09;;;10.58
27815;BMP280;15190;52.122;9.956;2023-03-21T04:41:21;100416.38;;;10.57
27815;BMP280;15190;52.122;9.956;2023-03-21T04:43:47;100413.94;;;10.58
27815;BMP280;15190;52.122;9.956;2023-03-21T04:46:13;100418.91;;;10.57
27815;BMP280;15190;52.122;9.956;2023-03-21T04:48:39;100421.66;;;10.61
27815;BMP280;15190;52.122;9.956;2023-03-21T04:51:05;100421.78;;;10.64
27815;BMP280;15190;52.122;9.956;2023-03-21T04:53:31;100420.13;;;10.65
27815;BMP280;15190;52.122;9.956;2023-03-21T04:55:57;100418.56;;;10.67
27815;BMP280;15190;52.122;9.956;2023-03-21T04:58:23;100426.50;;;10.74
27815;BMP280;15190;52.122;9.956;2023-03-21T05:00:49;100418.56;;;10.67
27815;BMP280;15190;52.122;9.956;2023-03-21T05:03:17;100421.00;;;10.65
27815;BMP280;15190;52.122;9.956;2023-03-21T05:05:46;100424.13;;;10.60
27815;BMP280;15190;52.122;9.956;2023-03-21T05:08:13;100421.78;;;10.64
27815;BMP280;15190;52.122;9.956;2023-03-21T05:10:38;100416.38;;;10.57
27815;BMP280;15190;52.122;9.956;2023-03-21T05:13:04;100418.19;;;10.59
27815;BMP280;15190;52.122;9.956;2023-03-21T05:15:30;100408.03;;;10.58
27815;BMP280;15190;52.122;9.956;2023-03-21T05:17:56;100409.59;;;10.56
27815;BMP280;15190;52.122;9.956;2023-03-21T05:20:39;100413.94;;;10.58
27815;BMP280;15190;52.122;9.956;2023-03-21T05:23:09;100413.94;;;10.58
27815;BMP280;15190;52.122;9.956;2023-03-21T05:25:37;100414.13;;;10.63
27815;BMP280;15190;52.122;9.956;2023-03-21T05:28:05;100413.34;;;10.64
27815;BMP280;15190;52.122;9.956;2023-03-21T05:30:32;100413.50;;;10.67
27815;BMP280;15190;52.122;9.956;2023-03-21T05:32:58;100405.19;;;10.69
27815;BMP280;15190;52.122;9.956;2023-03-21T05:35:25;100408.84;;;10.76
27815;BMP280;15190;52.122;9.956;2023-03-21T05:37:51;100408.06;;;10.77
27815;BMP280;15190;52.122;9.956;2023-03-21T05:40:18;100409.06;;;10.80
27815;BMP280;15190;52.122;9.956;2023-03-21T05:42:45;100398.09;;;10.80
27815;BMP280;15190;52.122;9.956;2023-03-21T05:45:12;100398.34;;;10.86
27815;BMP280;15190;52.122;9.956;2023-03-21T05:47:38;100405.13;;;10.87
27815;BMP280;15190;52.122;9.956;2023-03-21T05:50:05;100402.69;;;10.88
27815;BMP280;15190;52.122;9.956;2023-03-21T05:52:32;100399.38;;;10.89
27815;BMP280;15190;52.122;9.956;2023-03-21T05:54:58;100395.31;;;10.92
27815;BMP280;15190;52.122;9.956;2023-03-21T05:57:24;100391.19;;;10.94
27815;BMP280;15190;52.122;9.956;2023-03-21T05:59:53;100389.66;;;10.98
27815;BMP280;15190;52.122;9.956;2023-03-21T06:02:19;100391.44;;;11.00
27815;BMP280;15190;52.122;9.956;2023-03-21T06:04:45;100398.34;;;11.03
27815;BMP280;15190;52.122;9.956;2023-03-21T06:07:11;100395.06;;;11.05
27815;BMP280;15190;52.122;9.956;2023-03-21T06:09:37;100399.38;;;11.08
27815;BMP280;15190;52.122;9.956;2023-03-21T06:12:03;100405.44;;;11.11
27815;BMP280;15190;52.122;9.956;2023-03-21T06:14:29;100397.06;;;11.12
27815;BMP280;15190;52.122;9.956;2023-03-21T06:16:55;100406.38;;;11.13
27815;BMP280;15190;52.122;9.956;2023-03-21T06:19:21;100404.00;;;11.16
27815;BMP280;15190;52.122;9.956;2023-03-21T06:21:47;100409.03;;;11.16
27815;BMP280;15190;52.122;9.956;2023-03-21T06:24:13;100399.94;;;11.20
27815;BMP280;15190;52.122;9.956;2023-03-21T06:26:39;100408.44;;;11.22
27815;BMP280;15190;52.122;9.956;2023-03-21T06:29:08;100408.53;;;11.23
27815;BMP280;15190;52.122;9.956;2023-03-21T06:31:34;100403.38;;;11.22
27815;BMP280;15190;52.122;9.956;2023-03-21T06:34:00;100411.91;;;11.24
27815;BMP280;15190;52.122;9.956;2023-03-21T06:36:26;100389.06;;;11.22
27815;BMP280;15190;52.122;9.956;2023-03-21T06:38:52;100399.19;;;11.22
27815;BMP280;15190;52.122;9.956;2023-03-21T06:41:18;100394.94;;;11.21
27815;BMP280;15190;52.122;9.956;2023-03-21T06:43:44;100399.25;;;11.24
27815;BMP280;15190;52.122;9.956;2023-03-21T06:46:10;100396.78;;;11.25
27815;BMP280;15190;52.122;9.956;2023-03-21T06:48:36;100401.03;;;11.26
27815;BMP280;15190;52.122;9.956;2023-03-21T06:51:04;100395.97;;;11.26
27815;BMP280;15190;52.122;9.956;2023-03-21T06:53:30;100407.84;;;11.27
27815;BMP280;15190;52.122;9.956;2023-03-21T06:55:57;100393.59;;;11.29
27815;BMP280;15190;52.122;9.956;2023-03-21T06:58:23;100397.06;;;11.31
27815;BMP280;15190;52.122;9.956;2023-03-21T07:00:49;100400.44;;;11.31
27815;BMP280;15190;52.122;9.956;2023-03-21T07:03:15;100405.56;;;11.33
27815;BMP280;15190;52.122;9.956;2023-03-21T07:05:41;100399.59;;;11.31
27815;BMP280;15190;52.122;9.956;2023-03-21T07:08:08;100403.78;;;11.30
27815;BMP280;15190;52.122;9.956;2023-03-21T07:10:42;100393.81;;;11.33
27815;BMP280;15190;52.122;9.956;2023-03-21T07:13:12;100401.44;;;11.35
27815;BMP280;15190;52.122;9.956;2023-03-21T07:15:38;100397.38;;;11.38
27815;BMP280;15190;52.122;9.956;2023-03-21T07:18:09;100403.97;;;11.35
27815;BMP280;15190;52.122;9.956;2023-03-21T07:20:35;100400.72;;;11.37
27815;BMP280;15190;52.122;9.956;2023-03-21T07:23:04;100402.38;;;11.37
27815;BMP280;15190;52.122;9.956;2023-03-21T07:25:31;100403.03;;;11.33
27815;BMP280;15190;52.122;9.956;2023-03-21T07:28:00;100410.63;;;11.33
27815;BMP280;15190;52.122;9.956;2023-03-21T07:30:26;100408.94;;;11.32
27815;BMP280;15190;52.122;9.956;2023-03-21T07:32:52;100405.56;;;11.33
27815;BMP280;15190;52.122;9.956;2023-03-21T07:35:19;100402.13;;;11.31
27815;BMP280;15190;52.122;9.956;2023-03-21T07:37:45;100403.03;;;11.33
27815;BMP280;15190;52.122;9.956;2023-03-21T07:40:11;100405.56;;;11.33
27815;BMP280;15190;52.122;9.956;2023-03-21T07:42:38;100402.25;;;11.34
27815;BMP280;15190;52.122;9.956;2023-03-21T07:45:05;100397.06;;;11.31
27815;BMP280;15190;52.122;9.956;2023-03-21T07:47:32;100397.19;;;11.34
27815;BMP280;15190;52.122;9.956;2023-03-21T07:49:58;100392.00;;;11.31
27815;BMP280;15190;52.122;9.956;2023-03-21T07:52:25;100397.88;;;11.30
27815;BMP280;15190;52.122;9.956;2023-03-21T07:54:51;100387.75;;;11.30
27815;BMP280;15190;52.122;9.956;2023-03-21T07:57:17;100387.75;;;11.30
27815;BMP280;15190;52.122;9.956;2023-03-21T07:59:43;100384.31;;;11.29
27815;BMP280;15190;52.122;9.956;2023-03-21T08:02:15;100380.88;;;11.28
27815;BMP280;15190;52.122;9.956;2023-03-21T08:04:42;100386.00;;;11.29
27815;BMP280;15190;52.122;9.956;2023-03-21T08:07:09;100385.06;;;11.27
27815;BMP280;15190;52.122;9.956;2023-03-21T08:09:35;100394.59;;;11.32
27815;BMP280;15190;52.122;9.956;2023-03-21T08:12:03;100396.28;;;11.32
27815;BMP280;15190;52.122;9.956;2023-03-21T08:14:28;100406.25;;;11.29
27815;BMP280;15190;52.122;9.956;2023-03-21T08:16:54;100402.00;;;11.28
27815;BMP280;15190;52.122;9.956;2023-03-21T08:19:20;100401.03;;;11.26
27815;BMP280;15190;52.122;9.956;2023-03-21T08:21:47;100403.66;;;11.28
27815;BMP280;15190;52.122;9.956;2023-03-21T08:24:14;100398.88;;;11.33
27815;BMP280;15190;52.122;9.956;2023-03-21T08:26:41;100401.94;;;11.27
27815;BMP280;15190;52.122;9.956;2023-03-21T08:29:08;100413.78;;;11.28
27815;BMP280;15190;52.122;9.956;2023-03-21T08:31:34;100406.19;;;11.28
27815;BMP280;15190;52.122;9.956;2023-03-21T08:34:00;100404.47;;;11.27
27815;BMP280;15190;52.122;9.956;2023-03-21T08:36:26;100409.53;;;11.27
27815;BMP280;15190;52.122;9.956;2023-03-21T08:38:52;100398.66;;;11.29
27815;BMP280;15190;52.122;9.956;2023-03-21T08:41:22;100402.25;;;11.34
27815;BMP280;15190;52.122;9.956;2023-03-21T08:43:49;100405.78;;;11.37
27815;BMP280;15190;52.122;9.956;2023-03-21T08:46:15;100400.59;;;11.34
27815;BMP280;15190;52.122;9.956;2023-03-21T08:48:41;100399.97;;;11.40
27815;BMP280;15190;52.122;9.956;2023-03-21T08:51:07;100399.19;;;11.41
27815;BMP280;15190;52.122;9.956;2023-03-21T08:53:33;100394.19;;;11.42
27815;BMP280;15190;52.122;9.956;2023-03-21T08:55:59;100410.34;;;11.44
27815;BMP280;15190;52.122;9.956;2023-03-21T08:58:25;100403.34;;;11.39
27815;BMP280;15190;52.122;9.956;2023-03-21T09:00:51;100395.78;;;11.40
27815;BMP280;15190;52.122;9.956;2023-03-21T09:03:17;100392.38;;;11.40
27815;BMP280;15190;52.122;9.956;2023-03-21T09:05:44;100395.84;;;11.42
27815;BMP280;15190;52.122;9.956;2023-03-21T09:08:11;100392.63;;;11.44
27815;BMP280;15190;52.122;9.956;2023-03-21T09:10:40;100386.97;;;11.50
27815;BMP280;15190;52.122;9.956;2023-03-21T09:13:07;100388.50;;;11.46
27815;BMP280;15190;52.122;9.956;2023-03-21T09:15:33;100387.00;;;11.51
27815;BMP280;15190;52.122;9.956;2023-03-21T09:17:59;100394.00;;;11.57
27815;BMP280;15190;52.122;9.956;2023-03-21T09:20:38;100386.41;;;11.57
27815;BMP280;15190;52.122;9.956;2023-03-21T09:23:05;100394.00;;;11.57
27815;BMP280;15190;52.122;9.956;2023-03-21T09:25:31;100391.06;;;11.67
27815;BMP280;15190;52.122;9.956;2023-03-21T09:27:58;100396.19;;;11.68
27815;BMP280;15190;52.122;9.956;2023-03-21T09:30:24;100387.31;;;11.77
27815;BMP280;15190;52.122;9.956;2023-03-21T09:32:50;100387.63;;;11.85
27815;BMP280;15190;52.122;9.956;2023-03-21T09:35:18;100379.34;;;11.89
27815;BMP280;15190;52.122;9.956;2023-03-21T09:37:46;100388.06;;;11.95
27815;BMP280;15190;52.122;9.956;2023-03-21T09:40:20;100385.06;;;12.04
27815;BMP280;15190;52.122;9.956;2023-03-21T09:42:57;100388.50;;;12.06
27815;BMP280;15190;52.122;9.956;2023-03-21T09:45:31;100379.22;;;12.06
27815;BMP280;15190;52.122;9.956;2023-03-21T09:48:00;100387.75;;;12.08
27815;BMP280;15190;52.122;9.956;2023-03-21T09:50:34;100377.75;;;12.11
27815;BMP280;15190;52.122;9.956;2023-03-21T09:53:26;100379.84;;;12.21
27815;BMP280;15190;52.122;9.956;2023-03-21T09:55:53;100373.06;;;12.20
27815;BMP280;15190;52.122;9.956;2023-03-21T10:01:15;100387.66;;;12.27
27815;BMP280;15190;52.122;9.956;2023-03-21T10:03:54;100376.75;;;12.28
27815;BMP280;15190;52.122;9.956;2023-03-21T10:06:22;100372.16;;;12.40
27815;BMP280;15190;52.122;9.956;2023-03-21T10:08:57;100377.31;;;12.43
27815;BMP280;15190;52.122;9.956;2023-03-21T10:11:31;100368.72;;;12.39
27815;BMP280;15190;52.122;9.956;2023-03-21T10:14:11;100361.19;;;12.41
27815;BMP280;15190;52.122;9.956;2023-03-21T10:16:43;100374.06;;;12.45
27815;BMP280;15190;52.122;9.956;2023-03-21T10:19:13;100367.19;;;12.43
27815;BMP280;15190;52.122;9.956;2023-03-21T10:21:41;100369.91;;;12.47
27815;BMP280;15190;52.122;9.956;2023-03-21T10:24:13;100365.91;;;12.53
27815;BMP280;15190;52.122;9.956;2023-03-21T10:26:42;100369.50;;;12.58
27815;BMP280;15190;52.122;9.956;2023-03-21T10:29:11;100365.91;;;12.53
27815;BMP280;15190;52.122;9.956;2023-03-21T10:31:38;100366.13;;;12.58
27815;BMP280;15190;52.122;9.956;2023-03-21T10:36:49;100370.56;;;12.63
27815;BMP280;15190;52.122;9.956;2023-03-21T10:41:50;100362.03;;;12.61
27815;BMP280;15190;52.122;9.956;2023-03-21T10:44:17;100357.97;;;12.66
27815;BMP280;15190;52.122;9.956;2023-03-21T10:47:07;100365.47;;;12.63
27815;BMP280;15190;52.122;9.956;2023-03-21T10:49:35;100362.31;;;12.69
27815;BMP280;15190;52.122;9.956;2023-03-21T10:52:04;100363.94;;;12.67
27815;BMP280;15190;52.122;9.956;2023-03-21T10:54:32;100361.41;;;12.68
27815;BMP280;15190;52.122;9.956;2023-03-21T10:57:15;100371.47;;;12.65
27815;BMP280;15190;52.122;9.956;2023-03-21T10:59:44;100365.19;;;12.56
27815;BMP280;15190;52.122;9.956;2023-03-21T11:02:18;100373.66;;;12.56
27815;BMP280;15190;52.122;9.956;2023-03-21T11:04:45;100371.81;;;12.52
27815;BMP280;15190;52.122;9.956;2023-03-21T11:07:13;100371.47;;;12.44
27815;BMP280;15190;52.122;9.956;2023-03-21T11:09:52;100357.44;;;12.31
27815;BMP280;15190;52.122;9.956;2023-03-21T11:12:36;100359.16;;;12.32
27815;BMP280;15190;52.122;9.956;2023-03-21T11:15:41;100348.78;;;12.26
27815;BMP280;15190;52.122;9.956;2023-03-21T11:18:21;100339.41;;;12.24
27815;BMP280;15190;52.122;9.956;2023-03-21T11:20:50;100340.31;;;12.26
27815;BMP280;15190;52.122;9.956;2023-03-21T11:23:17;100338.66;;;12.26
27815;BMP280;15190;52.122;9.956;2023-03-21T11:25:47;100338.84;;;12.31
27815;BMP280;15190;52.122;9.956;2023-03-21T11:28:16;100337.78;;;12.26
27815;BMP280;15190;52.122;9.956;2023-03-21T11:31:09;100325.97;;;12.26
27815;BMP280;15190;52.122;9.956;2023-03-21T11:33:49;100335.31;;;12.27
27815;BMP280;15190;52.122;9.956;2023-03-21T11:38:55;100323.66;;;12.32
27815;BMP280;15190;52.122;9.956;2023-03-21T11:41:28;100329.00;;;12.38
27815;BMP280;15190;52.122;9.956;2023-03-21T11:43:56;100323.16;;;12.41
27815;BMP280;15190;52.122;9.956;2023-03-21T11:46:27;100321.44;;;12.40
27815;BMP280;15190;52.122;9.956;2023-03-21T11:48:54;100322.47;;;12.45
27815;BMP280;15190;52.122;9.956;2023-03-21T11:52:18;100320.56;;;12.39
27815;BMP280;15190;52.122;9.956;2023-03-21T11:55:00;100314.06;;;12.46
27815;BMP280;15190;52.122;9.956;2023-03-21T12:05:27;100298.34;;;12.55
27815;BMP280;15190;52.122;9.956;2023-03-21T12:19:20;100291.00;;;12.61
27815;BMP280;15190;52.122;9.956;2023-03-21T12:24:40;100288.34;;;12.58
27815;BMP280;15190;52.122;9.956;2023-03-21T12:30:32;100282.56;;;12.62
27815;BMP280;15190;52.122;9.956;2023-03-21T12:36:19;100276.06;;;12.69
27815;BMP280;15190;52.122;9.956;2023-03-21T12:41:43;100269.94;;;12.64
27815;BMP280;15190;52.122;9.956;2023-03-21T12:44:14;100273.50;;;12.69
27815;BMP280;15190;52.122;9.956;2023-03-21T12:49:23;100271.06;;;12.72
27815;BMP280;15190;52.122;9.956;2023-03-21T12:51:56;100265.25;;;12.74
27815;BMP280;15190;52.122;9.956;2023-03-21T12:54:30;100271.97;;;12.72
27815;BMP280;15190;52.122;9.956;2023-03-21T12:59:36;100265.19;;;12.73
27815;BMP280;15190;52.122;9.956;2023-03-21T13:02:19;100267.63;;;12.70
27815;BMP280;15190;52.122;9.956;2023-03-21T13:07:35;100259.09;;;12.68
27815;BMP280;15190;52.122;9.956;2023-03-21T13:10:11;100258.38;;;12.72
27815;BMP280;15190;52.122;9.956;2023-03-21T13:15:48;100242.97;;;12.66
27815;BMP280;15190;52.122;9.956;2023-03-21T13:21:07;100241.50;;;12.72
27815;BMP280;15190;52.122;9.956;2023-03-21T13:23:38;100237.19;;;12.70
27815;BMP280;15190;52.122;9.956;2023-03-21T13:26:08;100241.28;;;12.66
27815;BMP280;15190;52.122;9.956;2023-03-21T13:28:38;100232.03;;;12.68
27815;BMP280;15190;52.122;9.956;2023-03-21T13:31:25;100230.28;;;12.66
27815;BMP280;15190;52.122;9.956;2023-03-21T13:33:54;100228.00;;;12.73
27815;BMP280;15190;52.122;9.956;2023-03-21T13:36:26;100234.00;;;12.75
27815;BMP280;15190;52.122;9.956;2023-03-21T13:38:57;100223.75;;;12.72
27815;BMP280;15190;52.122;9.956;2023-03-21T13:41:33;100227.94;;;12.72
27815;BMP280;15190;52.122;9.956;2023-03-21T13:57:20;100214.28;;;12.68
27815;BMP280;15190;52.122;9.956;2023-03-21T13:59:41;100209.28;;;12.70
27815;BMP280;15190;52.122;9.956;2023-03-21T14:04:37;100199.03;;;12.67
27815;BMP280;15190;52.122;9.956;2023-03-21T14:07:07;100202.44;;;12.67
27815;BMP280;15190;52.122;9.956;2023-03-21T14:09:45;100197.41;;;12.69
27815;BMP280;15190;52.122;9.956;2023-03-21T14:12:16;100201.38;;;12.62
27815;BMP280;15190;52.122;9.956;2023-03-21T14:14:50;100202.22;;;12.61
27815;BMP280;15190;52.122;9.956;2023-03-21T14:17:31;100199.56;;;12.58
27815;BMP280;15190;52.122;9.956;2023-03-21T14:20:10;100191.09;;;12.58
27815;BMP280;15190;52.122;9.956;2023-03-21T14:22:38;100196.91;;;12.55
27815;BMP280;15190;52.122;9.956;2023-03-21T14:25:16;100194.44;;;12.57
27815;BMP280;15190;52.122;9.956;2023-03-21T14:27:45;100183.44;;;12.56
27815;BMP280;15190;52.122;9.956;2023-03-21T14:30:39;100190.78;;;12.49
27815;BMP280;15190;52.122;9.956;2023-03-21T14:33:31;100187.47;;;12.51
27815;BMP280;15190;52.122;9.956;2023-03-21T14:35:59;100184.81;;;12.48
27815;BMP280;15190;52.122;9.956;2023-03-21T14:38:33;100180.50;;;12.46
27815;BMP280;15190;52.122;9.956;2023-03-21T14:41:02;100174.66;;;12.48
27815;BMP280;15190;52.122;9.956;2023-03-21T14:43:28;100176.41;;;12.49
27815;BMP280;15190;52.122;9.956;2023-03-21T14:45:55;100180.63;;;12.49
27815;BMP280;15190;52.122;9.956;2023-03-21T14:48:33;100177.97;;;12.46
27815;BMP280;15190;52.122;9.956;2023-03-21T14:51:08;100173.72;;;12.45
27815;BMP280;15190;52.122;9.956;2023-03-21T14:53:40;100176.34;;;12.48
27815;BMP280;15190;52.122;9.956;2023-03-21T14:56:16;100175.22;;;12.40
27815;BMP280;15190;52.122;9.956;2023-03-21T14:58:45;100162.56;;;12.40
27815;BMP280;15190;52.122;9.956;2023-03-21T15:01:25;100162.59;;;12.42
27815;BMP280;15190;52.122;9.956;2023-03-21T15:03:53;100161.56;;;12.37
27815;BMP280;15190;52.122;9.956;2023-03-21T15:06:20;100164.97;;;12.37
27815;BMP280;15190;52.122;9.956;2023-03-21T15:08:57;100164.13;;;12.37
27815;BMP280;15190;52.122;9.956;2023-03-21T15:11:49;100161.56;;;12.37
27815;BMP280;15190;52.122;9.956;2023-03-21T15:14:16;100157.41;;;12.39
27815;BMP280;15190;52.122;9.956;2023-03-21T15:16:43;100153.22;;;12.39
27815;BMP280;15190;52.122;9.956;2023-03-21T15:19:13;100156.63;;;12.40
27815;BMP280;15190;52.122;9.956;2023-03-21T15:21:46;100153.22;;;12.39
27815;BMP280;15190;52.122;9.956;2023-03-21T15:24:16;100150.66;;;12.39
27815;BMP280;15190;52.122;9.956;2023-03-21T15:26:45;100146.50;;;12.41
27815;BMP280;15190;52.122;9.956;2023-03-21T15:29:14;100144.09;;;12.44
27815;BMP280;15190;52.122;9.956;2023-03-21T15:31:41;100142.28;;;12.40
27815;BMP280;15190;52.122;9.956;2023-03-21T15:34:26;100139.63;;;12.37
27815;BMP280;15190;52.122;9.956;2023-03-21T15:36:57;100135.41;;;12.38
27815;BMP280;15190;52.122;9.956;2023-03-21T15:39:26;100131.28;;;12.40
27815;BMP280;15190;52.122;9.956;2023-03-21T15:44:51;100128.50;;;12.34
27815;BMP280;15190;52.122;9.956;2023-03-21T15:47:40;100119.00;;;12.28
27815;BMP280;15190;52.122;9.956;2023-03-21T15:50:35;100112.16;;;12.26
27815;BMP280;15190;52.122;9.956;2023-03-21T15:53:05;100106.13;;;12.22